createdAt,value
2023-04-25T00:00:13.684Z,24.89
2023-04-25T00:01:13.723Z,24.89
2023-04-25T00:02:13.812Z,24.89
2023-04-25T00:03:13.931Z,24.89
2023-04-25T00:04:13.967Z,24.93
2023-04-25T00:05:13.944Z,24.89
2023-04-25T00:06:13.861Z,24.91
2023-04-25T00:07:13.901Z,24.91
2023-04-25T00:08:13.920Z,24.89
2023-04-25T00:09:13.949Z,24.89
2023-04-25T00:10:13.994Z,24.88
2023-04-25T00:11:14.012Z,24.89
2023-04-25T00:12:14.057Z,24.92
2023-04-25T00:13:14.049Z,24.91
2023-04-25T00:14:14.054Z,24.89
2023-04-25T00:15:14.091Z,24.91
2023-04-25T00:16:14.174Z,24.89
2023-04-25T00:17:14.134Z,24.88
2023-04-25T00:18:14.160Z,24.89
2023-04-25T00:19:14.191Z,24.91
2023-04-25T00:20:14.237Z,24.89
2023-04-25T00:21:14.265Z,24.91
2023-04-25T00:22:14.300Z,24.88
2023-04-25T00:23:14.312Z,24.89
2023-04-25T00:24:14.356Z,24.91
2023-04-25T00:25:14.399Z,24.89
2023-04-25T00:26:14.449Z,24.88
2023-04-25T00:27:14.484Z,24.89
2023-04-25T00:28:14.516Z,24.86
2023-04-25T00:29:14.550Z,24.86
2023-04-25T00:30:14.587Z,24.88
2023-04-25T00:31:14.641Z,24.88
2023-04-25T00:32:14.653Z,24.85
2023-04-25T00:33:14.726Z,24.86
2023-04-25T00:34:14.726Z,24.91
2023-04-25T00:35:14.742Z,24.88
2023-04-25T00:36:14.772Z,24.86
2023-04-25T00:37:14.807Z,24.86
2023-04-25T00:38:14.848Z,24.86
2023-04-25T00:39:14.880Z,24.86
2023-04-25T00:40:14.916Z,24.88
2023-04-25T00:41:14.961Z,24.88
2023-04-25T00:42:15.005Z,24.89
2023-04-25T00:43:15.028Z,24.89
2023-04-25T00:44:15.082Z,24.86
2023-04-25T00:45:15.135Z,24.88
2023-04-25T00:46:15.197Z,24.86
2023-04-25T00:47:15.188Z,24.88
2023-04-25T00:48:15.233Z,24.85
2023-04-25T00:49:15.277Z,24.88
2023-04-25T00:50:15.301Z,24.88
2023-04-25T00:51:15.339Z,24.88
2023-04-25T00:52:15.377Z,24.88
2023-04-25T00:53:15.418Z,24.88
2023-04-25T00:54:15.458Z,24.89
2023-04-25T00:55:15.498Z,24.86
2023-04-25T00:56:15.520Z,24.86
2023-04-25T00:57:15.553Z,24.86
2023-04-25T00:58:15.587Z,24.88
2023-04-25T00:59:15.617Z,24.88
2023-04-25T01:00:15.683Z,24.88
2023-04-25T01:01:15.744Z,24.86
2023-04-25T01:02:15.893Z,24.89
2023-04-25T01:04:16.000Z,24.88
2023-04-25T01:05:15.840Z,24.88
2023-04-25T01:06:15.879Z,24.88
2023-04-25T01:07:15.921Z,24.86
2023-04-25T01:08:15.953Z,24.86
2023-04-25T01:09:15.993Z,24.88
2023-04-25T01:10:16.021Z,24.85
2023-04-25T01:11:16.087Z,24.88
2023-04-25T01:12:16.112Z,24.88
2023-04-25T01:13:16.163Z,24.84
2023-04-25T01:14:16.194Z,24.86
2023-04-25T01:15:16.220Z,24.85
2023-04-25T01:16:16.350Z,24.86
2023-04-25T01:17:16.299Z,24.88
2023-04-25T01:18:16.343Z,24.88
2023-04-25T01:19:16.376Z,24.88
2023-04-25T01:20:16.441Z,24.85
2023-04-25T01:21:16.475Z,24.88
2023-04-25T01:22:16.515Z,24.84
2023-04-25T01:23:16.545Z,24.85
2023-04-25T01:24:16.574Z,24.84
2023-04-25T01:25:16.585Z,24.85
2023-04-25T01:26:16.620Z,24.84
2023-04-25T01:27:16.634Z,24.86
2023-04-25T01:28:16.659Z,24.82
2023-04-25T01:29:16.694Z,24.85
2023-04-25T01:30:16.727Z,24.85
2023-04-25T01:31:16.742Z,24.85
2023-04-25T01:32:16.811Z,24.84
2023-04-25T01:33:16.798Z,24.85
2023-04-25T01:34:16.812Z,24.84
2023-04-25T01:35:16.840Z,24.86
2023-04-25T01:36:16.893Z,24.84
2023-04-25T01:37:16.877Z,24.88
2023-04-25T01:38:16.915Z,24.85
2023-04-25T01:39:16.949Z,24.86
2023-04-25T01:40:16.965Z,24.85
2023-04-25T01:41:16.987Z,24.86
2023-04-25T01:42:17.021Z,24.86
2023-04-25T01:43:17.027Z,24.85
2023-04-25T01:44:17.061Z,24.86
2023-04-25T01:45:17.104Z,24.86
2023-04-25T01:46:17.152Z,24.85
2023-04-25T01:47:17.134Z,24.84
2023-04-25T01:48:17.170Z,24.86
2023-04-25T01:49:17.207Z,24.85
2023-04-25T01:50:17.206Z,24.86
2023-04-25T01:51:17.246Z,24.85
2023-04-25T01:52:17.259Z,24.85
2023-04-25T01:53:17.312Z,24.84
2023-04-25T01:54:17.349Z,24.85
2023-04-25T01:55:17.354Z,24.82
2023-04-25T01:56:17.420Z,24.85
2023-04-25T01:57:17.453Z,24.86
2023-04-25T01:58:17.509Z,24.81
2023-04-25T01:59:17.530Z,24.85
2023-04-25T02:00:17.531Z,24.85
2023-04-25T02:01:17.613Z,24.86
2023-04-25T02:02:17.669Z,24.84
2023-04-25T02:03:17.697Z,24.82
2023-04-25T02:04:17.927Z,24.85
2023-04-25T02:05:17.676Z,24.85
2023-04-25T02:06:17.706Z,24.84
2023-04-25T02:07:17.711Z,24.85
2023-04-25T02:08:17.744Z,24.82
2023-04-25T02:09:17.755Z,24.84
2023-04-25T02:10:17.783Z,24.84
2023-04-25T02:11:17.793Z,24.82
2023-04-25T02:12:17.826Z,24.81
2023-04-25T02:13:17.853Z,24.84
2023-04-25T02:14:17.860Z,24.84
2023-04-25T02:15:17.898Z,24.82
2023-04-25T02:16:18.020Z,24.82
2023-04-25T02:17:18.005Z,24.84
2023-04-25T02:18:18.018Z,24.82
2023-04-25T02:19:18.002Z,24.82
2023-04-25T02:20:18.032Z,24.79
2023-04-25T02:21:18.100Z,24.85
2023-04-25T02:22:18.110Z,24.82
2023-04-25T02:23:18.137Z,24.82
2023-04-25T02:24:18.149Z,24.84
2023-04-25T02:25:18.181Z,24.79
2023-04-25T02:26:18.244Z,24.82
2023-04-25T02:27:18.235Z,24.81
2023-04-25T02:28:18.269Z,24.81
2023-04-25T02:29:18.295Z,24.82
2023-04-25T02:30:18.341Z,24.81
2023-04-25T02:31:18.367Z,24.81
2023-04-25T02:32:18.391Z,24.81
2023-04-25T02:33:18.417Z,24.81
2023-04-25T02:34:18.438Z,24.81
2023-04-25T02:35:18.498Z,24.81
2023-04-25T02:36:18.575Z,24.79
2023-04-25T02:37:18.558Z,24.78
2023-04-25T02:38:18.613Z,24.81
2023-04-25T02:39:18.651Z,24.79
2023-04-25T02:40:18.686Z,24.82
2023-04-25T02:41:18.734Z,24.82
2023-04-25T02:42:18.770Z,24.81
2023-04-25T02:43:18.807Z,24.81
2023-04-25T02:44:18.839Z,24.79
2023-04-25T02:45:18.909Z,24.78
2023-04-25T02:46:25.477Z,24.79
2023-04-25T02:47:20.010Z,24.79
2023-04-25T02:48:19.006Z,24.81
2023-04-25T02:49:19.008Z,24.79
2023-04-25T02:50:19.035Z,24.79
2023-04-25T02:51:19.067Z,24.78
2023-04-25T02:52:19.090Z,24.81
2023-04-25T02:53:19.104Z,24.79
2023-04-25T02:54:19.138Z,24.81
2023-04-25T02:55:19.188Z,24.78
2023-04-25T02:56:19.218Z,24.78
2023-04-25T02:57:19.227Z,24.81
2023-04-25T02:58:19.252Z,24.79
2023-04-25T02:59:19.306Z,24.79
2023-04-25T03:00:19.327Z,24.79
2023-04-25T03:01:19.393Z,24.79
2023-04-25T03:02:19.399Z,24.78
2023-04-25T03:03:19.472Z,24.81
2023-04-25T03:04:19.439Z,24.81
2023-04-25T03:05:19.452Z,24.78
2023-04-25T03:06:19.509Z,24.79
2023-04-25T03:07:19.507Z,24.78
2023-04-25T03:08:19.544Z,24.79
2023-04-25T03:09:19.583Z,24.78
2023-04-25T03:10:19.614Z,24.81
2023-04-25T03:11:19.646Z,24.79
2023-04-25T03:12:19.663Z,24.81
2023-04-25T03:13:19.700Z,24.79
2023-04-25T03:14:19.724Z,24.78
2023-04-25T03:15:19.757Z,24.79
2023-04-25T03:16:19.825Z,24.79
2023-04-25T03:17:19.814Z,24.77
2023-04-25T03:18:19.825Z,24.78
2023-04-25T03:19:19.883Z,24.79
2023-04-25T03:20:19.894Z,24.79
2023-04-25T03:21:19.937Z,24.81
2023-04-25T03:22:19.946Z,24.78
2023-04-25T03:23:20.018Z,24.79
2023-04-25T03:24:20.050Z,24.78
2023-04-25T03:25:20.092Z,24.78
2023-04-25T03:26:20.120Z,24.77
2023-04-25T03:27:20.162Z,24.79
2023-04-25T03:28:20.201Z,24.78
2023-04-25T03:29:20.241Z,24.79
2023-04-25T03:30:20.295Z,24.78
2023-04-25T03:31:20.391Z,24.78
2023-04-25T03:32:20.505Z,24.78
2023-04-25T03:33:20.420Z,24.75
2023-04-25T03:34:20.476Z,24.78
2023-04-25T03:35:20.508Z,24.78
2023-04-25T03:36:20.552Z,24.77
2023-04-25T03:37:20.609Z,24.78
2023-04-25T03:38:20.656Z,24.78
2023-04-25T03:39:20.700Z,24.79
2023-04-25T03:40:20.729Z,24.79
2023-04-25T03:41:20.797Z,24.78
2023-04-25T03:42:20.837Z,24.78
2023-04-25T03:43:20.862Z,24.78
2023-04-25T03:44:20.998Z,24.75
2023-04-25T03:45:20.947Z,24.77
2023-04-25T03:46:21.052Z,24.78
2023-04-25T03:47:21.076Z,24.77
2023-04-25T03:48:21.075Z,24.79
2023-04-25T03:49:21.128Z,24.78
2023-04-25T03:50:21.155Z,24.77
2023-04-25T03:51:21.197Z,24.78
2023-04-25T03:52:21.245Z,24.78
2023-04-25T03:53:21.287Z,24.78
2023-04-25T03:54:21.330Z,24.77
2023-04-25T03:55:21.363Z,24.75
2023-04-25T03:56:21.425Z,24.77
2023-04-25T03:57:21.566Z,24.77
2023-04-25T03:58:21.511Z,24.78
2023-04-25T03:59:21.575Z,24.79
2023-04-25T04:00:21.617Z,24.75
2023-04-25T04:01:21.645Z,24.75
2023-04-25T04:02:21.761Z,24.78
2023-04-25T04:03:22.031Z,24.75
2023-04-25T04:04:22.042Z,24.78
2023-04-25T04:05:21.926Z,24.74
2023-04-25T04:06:21.889Z,24.74
2023-04-25T04:07:21.934Z,24.77
2023-04-25T04:08:21.996Z,24.75
2023-04-25T04:09:22.036Z,24.77
2023-04-25T04:10:22.070Z,24.74
2023-04-25T04:11:22.147Z,24.75
2023-04-25T04:12:22.172Z,24.74
2023-04-25T04:13:22.231Z,24.74
2023-04-25T04:14:22.255Z,24.75
2023-04-25T04:15:22.297Z,24.75
2023-04-25T04:16:22.386Z,24.77
2023-04-25T04:17:22.434Z,24.75
2023-04-25T04:18:22.440Z,24.75
2023-04-25T04:19:22.472Z,24.77
2023-04-25T04:20:22.523Z,24.75
2023-04-25T04:21:22.555Z,24.72
2023-04-25T04:22:22.601Z,24.74
2023-04-25T04:23:22.636Z,24.72
2023-04-25T04:24:22.685Z,24.74
2023-04-25T04:25:22.745Z,24.75
2023-04-25T04:26:22.775Z,24.75
2023-04-25T04:27:22.834Z,24.78
2023-04-25T04:28:22.896Z,24.78
2023-04-25T04:29:22.919Z,24.74
2023-04-25T04:30:22.955Z,24.75
2023-04-25T04:31:23.025Z,24.75
2023-04-25T04:32:23.076Z,24.72
2023-04-25T04:33:23.107Z,24.74
2023-04-25T04:34:23.130Z,24.72
2023-04-25T04:35:23.205Z,24.72
2023-04-25T04:36:23.204Z,24.72
2023-04-25T04:37:23.271Z,24.75
2023-04-25T04:38:23.312Z,24.72
2023-04-25T04:39:23.379Z,24.72
2023-04-25T04:40:23.433Z,24.74
2023-04-25T04:41:23.475Z,24.72
2023-04-25T04:42:23.500Z,24.71
2023-04-25T04:43:23.553Z,24.74
2023-04-25T04:44:23.594Z,24.74
2023-04-25T04:45:23.658Z,24.74
2023-04-25T04:46:23.737Z,24.75
2023-04-25T04:47:23.749Z,24.75
2023-04-25T04:48:23.811Z,24.75
2023-04-25T04:49:23.827Z,24.74
2023-04-25T04:50:23.875Z,24.75
2023-04-25T04:51:23.926Z,24.77
2023-04-25T04:52:23.976Z,24.77
2023-04-25T04:53:24.021Z,24.77
2023-04-25T04:54:24.053Z,24.77
2023-04-25T04:55:24.108Z,24.74
2023-04-25T04:56:24.158Z,24.74
2023-04-25T04:57:24.229Z,24.74
2023-04-25T04:58:24.231Z,24.75
2023-04-25T04:59:24.284Z,24.75
2023-04-25T05:00:24.334Z,24.77
2023-04-25T05:01:24.401Z,24.74
2023-04-25T05:02:24.513Z,24.77
2023-04-25T05:03:24.585Z,24.75
2023-04-25T05:04:24.542Z,24.75
2023-04-25T05:05:24.561Z,24.75
2023-04-25T05:06:24.619Z,24.74
2023-04-25T05:07:24.652Z,24.75
2023-04-25T05:08:24.704Z,24.74
2023-04-25T05:09:24.779Z,24.74
2023-04-25T05:10:24.785Z,24.75
2023-04-25T05:11:24.821Z,24.75
2023-04-25T05:12:24.872Z,24.75
2023-04-25T05:13:24.903Z,24.75
2023-04-25T05:14:24.977Z,24.78
2023-04-25T05:15:25.004Z,24.77
2023-04-25T05:16:25.078Z,24.77
2023-04-25T05:17:25.128Z,24.75
2023-04-25T05:18:25.162Z,24.77
2023-04-25T05:19:25.212Z,24.75
2023-04-25T05:20:25.252Z,24.75
2023-04-25T05:21:25.308Z,24.77
2023-04-25T05:22:25.362Z,24.77
2023-04-25T05:23:25.411Z,24.77
2023-04-25T05:24:25.445Z,24.77
2023-04-25T05:25:25.520Z,24.78
2023-04-25T05:26:25.632Z,24.77
2023-04-25T05:27:25.665Z,24.79
2023-04-25T05:28:25.706Z,24.77
2023-04-25T05:29:25.696Z,24.77
2023-04-25T05:30:25.736Z,24.78
2023-04-25T05:31:25.796Z,24.78
2023-04-25T05:32:25.912Z,24.78
2023-04-25T05:33:25.889Z,24.77
2023-04-25T05:34:25.944Z,24.77
2023-04-25T05:35:25.992Z,24.75
2023-04-25T05:36:26.011Z,24.77
2023-04-25T05:37:26.146Z,24.81
2023-04-25T05:38:26.097Z,24.82
2023-04-25T05:39:26.145Z,24.84
2023-04-25T05:40:26.230Z,24.85
2023-04-25T05:41:26.205Z,24.88
2023-04-25T05:42:26.239Z,24.88
2023-04-25T05:43:26.232Z,24.91
2023-04-25T05:44:26.268Z,24.92
2023-04-25T05:45:26.303Z,24.95
2023-04-25T05:46:26.441Z,24.95
2023-04-25T05:47:26.388Z,24.99
2023-04-25T05:48:26.412Z,25.01
2023-04-25T05:49:26.572Z,25.01
2023-04-25T05:50:27.357Z,25.02
2023-04-25T05:51:26.510Z,25.06
2023-04-25T05:52:26.449Z,25.08
2023-04-25T05:53:26.532Z,25.10
2023-04-25T05:54:26.615Z,25.15
2023-04-25T05:55:26.629Z,25.16
2023-04-25T05:56:26.628Z,25.19
2023-04-25T05:57:26.695Z,25.23
2023-04-25T05:58:26.860Z,25.25
2023-04-25T05:59:26.764Z,25.22
2023-04-25T06:00:29.468Z,25.28
2023-04-25T06:01:27.322Z,25.29
2023-04-25T06:02:27.257Z,25.32
2023-04-25T06:03:27.349Z,25.32
2023-04-25T06:04:27.392Z,25.34
2023-04-25T06:05:27.413Z,25.34
2023-04-25T06:06:27.289Z,25.37
2023-04-25T06:07:27.383Z,25.39
2023-04-25T06:08:27.460Z,25.43
2023-04-25T06:09:27.561Z,25.43
2023-04-25T06:10:27.634Z,25.46
2023-04-25T06:11:27.698Z,25.50
2023-04-25T06:12:27.803Z,25.54
2023-04-25T06:13:27.876Z,25.57
2023-04-25T06:14:29.538Z,25.61
2023-04-25T06:15:29.040Z,25.64
2023-04-25T06:16:28.116Z,25.64
2023-04-25T06:17:28.169Z,25.70
2023-04-25T06:18:28.218Z,25.71
2023-04-25T06:19:28.297Z,25.74
2023-04-25T06:20:28.357Z,25.78
2023-04-25T06:21:28.446Z,25.83
2023-04-25T06:22:28.471Z,25.81
2023-04-25T06:23:28.542Z,25.87
2023-04-25T06:24:28.640Z,25.88
2023-04-25T06:25:28.669Z,25.89
2023-04-25T06:26:28.688Z,25.92
2023-04-25T06:27:28.749Z,25.95
2023-04-25T06:28:28.790Z,25.98
2023-04-25T06:29:28.903Z,25.98
2023-04-25T06:30:28.924Z,26.01
2023-04-25T06:31:28.957Z,26.01
2023-04-25T06:32:29.351Z,26.03
2023-04-25T06:33:29.177Z,26.05
2023-04-25T06:34:29.087Z,26.06
2023-04-25T06:35:29.112Z,26.08
2023-04-25T06:36:29.177Z,26.02
2023-04-25T06:37:29.216Z,26.08
2023-04-25T06:38:29.348Z,26.08
2023-04-25T06:39:29.296Z,26.12
2023-04-25T06:40:29.367Z,26.11
2023-04-25T06:41:29.384Z,26.12
2023-04-25T06:42:29.564Z,26.12
2023-04-25T06:43:29.469Z,26.09
2023-04-25T06:44:29.507Z,26.12
2023-04-25T06:45:29.601Z,26.13
2023-04-25T06:46:29.689Z,26.15
2023-04-25T06:47:29.678Z,26.18
2023-04-25T06:48:29.667Z,26.20
2023-04-25T06:49:29.745Z,26.22
2023-04-25T06:50:29.714Z,26.19
2023-04-25T06:51:29.781Z,26.18
2023-04-25T06:52:29.807Z,26.20
2023-04-25T06:53:29.813Z,26.23
2023-04-25T06:54:29.845Z,26.23
2023-04-25T06:55:30.008Z,26.23
2023-04-25T06:56:29.944Z,26.20
2023-04-25T06:57:29.936Z,26.26
2023-04-25T06:58:29.981Z,26.30
2023-04-25T06:59:30.020Z,26.36
2023-04-25T07:00:30.110Z,26.42
2023-04-25T07:01:30.177Z,26.44
2023-04-25T07:02:30.192Z,26.50
2023-04-25T07:03:30.374Z,26.54
2023-04-25T07:04:30.443Z,26.57
2023-04-25T07:05:30.141Z,26.64
2023-04-25T07:06:30.154Z,26.70
2023-04-25T07:07:30.173Z,26.73
2023-04-25T07:08:30.469Z,26.77
2023-04-25T07:09:30.221Z,26.78
2023-04-25T07:10:30.391Z,26.83
2023-04-25T07:11:30.358Z,26.84
2023-04-25T07:12:30.348Z,26.88
2023-04-25T07:13:30.389Z,26.91
2023-04-25T07:14:30.361Z,26.93
2023-04-25T07:15:30.390Z,26.95
2023-04-25T07:16:30.554Z,26.97
2023-04-25T07:17:30.428Z,27.01
2023-04-25T07:18:30.477Z,27.04
2023-04-25T07:19:30.422Z,27.04
2023-04-25T07:20:30.432Z,27.06
2023-04-25T07:21:30.398Z,27.09
2023-04-25T07:22:30.413Z,27.09
2023-04-25T07:23:30.949Z,27.09
2023-04-25T07:24:30.507Z,27.08
2023-04-25T07:25:30.486Z,27.09
2023-04-25T07:26:30.482Z,27.12
2023-04-25T07:27:30.502Z,27.13
2023-04-25T07:28:30.576Z,27.15
2023-04-25T07:29:30.540Z,27.13
2023-04-25T07:30:30.558Z,27.13
2023-04-25T07:31:30.545Z,27.16
2023-04-25T07:32:30.568Z,27.16
2023-04-25T07:33:30.573Z,27.19
2023-04-25T07:34:30.588Z,27.21
2023-04-25T07:35:30.550Z,27.24
2023-04-25T07:36:31.352Z,27.25
2023-04-25T07:37:30.544Z,27.28
2023-04-25T07:38:30.577Z,27.32
2023-04-25T07:39:30.570Z,27.29
2023-04-25T07:40:30.603Z,27.26
2023-04-25T07:41:30.566Z,27.21
2023-04-25T07:42:30.573Z,27.24
2023-04-25T07:43:30.618Z,27.18
2023-04-25T07:44:30.581Z,27.18
2023-04-25T07:45:30.584Z,27.18
2023-04-25T07:46:30.757Z,27.18
2023-04-25T07:47:30.640Z,27.15
2023-04-25T07:48:30.610Z,27.18
2023-04-25T07:49:30.611Z,27.18
2023-04-25T07:50:31.455Z,27.16
2023-04-25T07:51:31.581Z,27.18
2023-04-25T07:52:30.810Z,27.16
2023-04-25T07:53:30.687Z,27.18
2023-04-25T07:54:30.767Z,27.16
2023-04-25T07:55:30.648Z,27.18
2023-04-25T07:56:38.537Z,27.21
2023-04-25T07:57:31.680Z,27.18
2023-04-25T07:58:30.633Z,27.21
2023-04-25T07:59:30.679Z,27.21
2023-04-25T08:00:30.678Z,27.21
2023-04-25T08:01:30.684Z,27.19
2023-04-25T08:02:30.790Z,27.21
2023-04-25T08:03:31.129Z,27.19
2023-04-25T08:04:30.803Z,27.16
2023-04-25T08:05:30.791Z,27.16
2023-04-25T08:06:30.850Z,27.15
2023-04-25T08:07:30.689Z,27.16
2023-04-25T08:08:30.715Z,27.13
2023-04-25T08:09:31.457Z,27.13
2023-04-25T08:10:30.863Z,27.12
2023-04-25T08:11:30.756Z,27.11
2023-04-25T08:12:30.695Z,27.11
2023-04-25T08:13:30.706Z,27.11
2023-04-25T08:14:30.778Z,27.11
2023-04-25T08:15:31.571Z,27.12
2023-04-25T08:16:30.987Z,27.12
2023-04-25T08:17:30.840Z,27.11
2023-04-25T08:18:30.905Z,27.11
2023-04-25T08:19:30.919Z,27.11
2023-04-25T08:20:30.986Z,27.09
2023-04-25T08:21:31.581Z,27.11
2023-04-25T08:22:30.919Z,27.09
2023-04-25T08:23:30.949Z,27.09
2023-04-25T08:24:31.066Z,27.09
2023-04-25T08:25:30.976Z,27.09
2023-04-25T08:26:30.966Z,27.09
2023-04-25T08:27:30.993Z,27.09
2023-04-25T08:28:30.991Z,27.12
2023-04-25T08:29:31.004Z,27.11
2023-04-25T08:30:30.992Z,27.09
2023-04-25T08:31:31.039Z,27.11
2023-04-25T08:32:31.207Z,27.09
2023-04-25T08:33:31.034Z,27.11
2023-04-25T08:34:31.105Z,27.08
2023-04-25T08:35:31.074Z,27.05
2023-04-25T08:36:39.139Z,27.02
2023-04-25T08:37:32.138Z,27.04
2023-04-25T08:38:31.047Z,26.99
2023-04-25T08:39:31.080Z,26.97
2023-04-25T08:40:31.056Z,26.94
2023-04-25T08:41:31.941Z,26.91
2023-04-25T08:42:31.274Z,26.88
2023-04-25T08:43:31.049Z,26.84
2023-04-25T08:44:31.022Z,26.81
2023-04-25T08:45:31.040Z,26.70
2023-04-25T08:46:32.164Z,26.70
2023-04-25T08:47:31.036Z,26.73
2023-04-25T08:48:31.049Z,26.68
2023-04-25T08:49:31.079Z,26.71
2023-04-25T08:50:31.094Z,26.70
2023-04-25T08:51:31.226Z,26.71
2023-04-25T08:52:31.060Z,26.71
2023-04-25T08:53:31.533Z,26.74
2023-04-25T08:54:34.634Z,26.74
2023-04-25T08:55:31.060Z,26.76
2023-04-25T08:56:31.184Z,26.71
2023-04-25T08:57:31.118Z,26.73
2023-04-25T08:58:31.148Z,26.71
2023-04-25T08:59:31.106Z,26.70
2023-04-25T09:00:31.122Z,26.71
2023-04-25T09:01:31.176Z,26.73
2023-04-25T09:02:31.278Z,26.73
2023-04-25T09:03:31.260Z,26.71
2023-04-25T09:04:31.149Z,26.73
2023-04-25T09:05:31.172Z,26.76
2023-04-25T09:06:31.217Z,26.73
2023-04-25T09:07:31.151Z,26.76
2023-04-25T09:08:31.191Z,26.76
2023-04-25T09:09:31.231Z,26.76
2023-04-25T09:11:31.217Z,26.76
2023-04-25T09:12:31.436Z,26.77
2023-04-25T09:13:31.161Z,26.80
2023-04-25T09:14:31.249Z,26.77
2023-04-25T09:15:31.240Z,26.80
2023-04-25T09:16:31.682Z,26.81
2023-04-25T09:17:31.321Z,26.81
2023-04-25T09:18:31.196Z,26.83
2023-04-25T09:20:31.800Z,26.84
2023-04-25T09:21:31.237Z,26.87
2023-04-25T09:22:31.295Z,26.85
2023-04-25T09:23:31.232Z,26.88
2023-04-25T09:24:31.207Z,26.87
2023-04-25T09:25:31.188Z,26.88
2023-04-25T09:26:31.243Z,26.88
2023-04-25T09:27:31.176Z,26.94
2023-04-25T09:28:31.282Z,26.95
2023-04-25T09:29:31.275Z,26.99
2023-04-25T09:30:31.232Z,26.95
2023-04-25T09:31:31.230Z,26.95
2023-04-25T09:32:31.309Z,26.95
2023-04-25T09:33:31.264Z,26.97
2023-04-25T09:34:31.230Z,26.95
2023-04-25T09:35:31.205Z,26.99
2023-04-25T09:36:31.263Z,26.97
2023-04-25T09:37:31.225Z,26.98
2023-04-25T09:38:31.229Z,26.99
2023-04-25T09:39:31.231Z,26.94
2023-04-25T09:40:31.247Z,26.99
2023-04-25T09:41:31.205Z,26.97
2023-04-25T09:42:31.274Z,26.97
2023-04-25T09:43:31.201Z,26.98
2023-04-25T09:44:31.288Z,26.95
2023-04-25T09:45:31.268Z,26.93
2023-04-25T09:46:31.271Z,25.36
2023-04-25T09:47:31.277Z,25.50
2023-04-25T09:48:31.318Z,25.74
2023-04-25T09:49:31.287Z,25.84
2023-04-25T09:50:31.338Z,25.74
2023-04-25T09:51:31.314Z,25.80
2023-04-25T09:52:31.409Z,25.85
2023-04-25T09:53:31.368Z,25.89
2023-04-25T09:54:31.422Z,25.92
2023-04-25T09:55:35.419Z,25.96
2023-04-25T09:56:45.049Z,26.01
2023-04-25T09:57:32.232Z,26.02
2023-04-25T09:58:33.385Z,26.05
2023-04-25T09:59:35.253Z,26.06
2023-04-25T10:00:32.743Z,26.09
2023-04-25T10:01:31.441Z,26.12
2023-04-25T10:02:31.435Z,26.13
2023-04-25T10:03:33.035Z,26.16
2023-04-25T10:05:50.281Z,26.13
2023-04-25T10:06:51.646Z,26.18
2023-04-25T10:07:50.667Z,26.20
2023-04-25T10:08:50.153Z,26.22
2023-04-25T10:09:50.425Z,26.23
2023-04-25T10:10:50.292Z,26.23
2023-04-25T10:11:50.214Z,26.26
2023-04-25T10:12:50.181Z,26.29
2023-04-25T10:13:50.455Z,26.30
2023-04-25T10:14:50.193Z,26.33
2023-04-25T10:15:50.261Z,26.35
2023-04-25T10:16:50.192Z,26.36
2023-04-25T10:17:50.383Z,26.38
2023-04-25T10:18:50.201Z,26.38
2023-04-25T10:19:50.463Z,26.40
2023-04-25T10:20:50.672Z,26.42
2023-04-25T10:21:50.244Z,26.46
2023-04-25T10:22:50.253Z,26.49
2023-04-25T10:23:50.425Z,26.49
2023-04-25T10:24:50.304Z,26.53
2023-04-25T10:25:50.314Z,26.51
2023-04-25T10:26:50.301Z,26.57
2023-04-25T10:27:50.322Z,26.57
2023-04-25T10:28:50.374Z,26.57
2023-04-25T10:29:50.297Z,26.60
2023-04-25T10:30:50.348Z,26.58
2023-04-25T10:31:50.343Z,26.63
2023-04-25T10:32:50.301Z,26.64
2023-04-25T10:33:50.539Z,26.63
2023-04-25T10:34:50.354Z,26.67
2023-04-25T10:35:50.342Z,26.67
2023-04-25T10:36:50.325Z,26.70
2023-04-25T10:37:50.340Z,26.71
2023-04-25T10:38:50.331Z,26.73
2023-04-25T10:39:50.331Z,26.74
2023-04-25T10:40:50.361Z,26.60
2023-04-25T10:41:50.412Z,26.67
2023-04-25T10:42:50.340Z,26.73
2023-04-25T10:43:50.539Z,26.74
2023-04-25T10:44:50.378Z,26.78
2023-04-25T10:45:50.389Z,26.78
2023-04-25T10:46:50.455Z,26.81
2023-04-25T10:47:50.408Z,26.83
2023-04-25T10:48:50.360Z,26.81
2023-04-25T10:49:50.410Z,26.85
2023-04-25T10:50:50.424Z,26.84
2023-04-25T10:51:55.031Z,26.87
2023-04-25T10:52:51.386Z,26.88
2023-04-25T10:53:50.732Z,26.87
2023-04-25T10:54:50.413Z,26.91
2023-04-25T10:55:50.385Z,26.93
2023-04-25T10:56:50.399Z,26.93
2023-04-25T10:57:50.409Z,26.91
2023-04-25T10:58:52.102Z,26.93
2023-04-25T10:59:50.393Z,26.94
2023-04-25T11:01:50.464Z,26.95
2023-04-25T11:02:50.412Z,26.95
2023-04-25T11:03:50.724Z,26.97
2023-04-25T11:04:50.377Z,27.01
2023-04-25T11:05:57.823Z,27.01
2023-04-25T11:06:53.801Z,27.01
2023-04-25T11:07:59.484Z,27.02
2023-04-25T11:08:50.591Z,27.02
2023-04-25T11:09:50.329Z,27.02
2023-04-25T11:10:51.676Z,27.04
2023-04-25T11:11:50.313Z,27.04
2023-04-25T11:12:50.857Z,27.04
2023-04-25T11:13:50.456Z,27.04
2023-04-25T11:14:50.320Z,27.05
2023-04-25T11:15:55.122Z,27.04
2023-04-25T11:16:51.299Z,27.06
2023-04-25T11:17:50.334Z,27.09
2023-04-25T11:18:50.512Z,27.08
2023-04-25T11:19:50.260Z,27.08
2023-04-25T11:20:50.296Z,27.09
2023-04-25T11:21:50.290Z,27.08
2023-04-25T11:22:51.664Z,27.09
2023-04-25T11:23:50.750Z,27.12
2023-04-25T11:24:50.469Z,27.12
2023-04-25T11:25:50.455Z,27.13
2023-04-25T11:26:50.426Z,27.08
2023-04-25T11:27:50.498Z,27.11
2023-04-25T11:28:50.491Z,27.08
2023-04-25T11:29:50.510Z,27.09
2023-04-25T11:30:50.487Z,27.09
2023-04-25T11:31:50.537Z,27.11
2023-04-25T11:32:50.492Z,27.09
2023-04-25T11:33:50.951Z,27.11
2023-04-25T11:34:50.485Z,27.09
2023-04-25T11:35:50.500Z,27.06
2023-04-25T11:36:50.489Z,27.11
2023-04-25T11:37:50.498Z,27.08
2023-04-25T11:38:50.567Z,27.06
2023-04-25T11:39:50.536Z,27.08
2023-04-25T11:40:50.554Z,27.06
2023-04-25T11:41:50.557Z,27.08
2023-04-25T11:42:50.635Z,27.08
2023-04-25T11:43:50.611Z,27.08
2023-04-25T11:44:50.531Z,27.08
2023-04-25T11:45:50.530Z,27.08
2023-04-25T11:46:50.507Z,27.06
2023-04-25T11:47:50.533Z,27.06
2023-04-25T11:48:50.656Z,27.02
2023-04-25T11:49:50.472Z,26.99
2023-04-25T11:50:50.489Z,26.98
2023-04-25T11:51:50.502Z,26.98
2023-04-25T11:52:50.473Z,26.95
2023-04-25T11:53:50.481Z,26.95
2023-04-25T11:54:50.447Z,26.91
2023-04-25T11:55:51.860Z,26.94
2023-04-25T11:56:50.431Z,26.90
2023-04-25T11:57:50.417Z,26.90
2023-04-25T11:58:50.422Z,26.85
2023-04-25T11:59:50.451Z,26.83
2023-04-25T12:00:50.930Z,26.85
2023-04-25T12:01:50.430Z,26.83
2023-04-25T12:02:50.585Z,26.80
2023-04-25T12:03:50.739Z,26.78
2023-04-25T12:04:51.076Z,26.77
2023-04-25T12:05:50.757Z,26.74
2023-04-25T12:06:50.504Z,26.73
2023-04-25T12:07:50.433Z,26.71
2023-04-25T12:08:50.609Z,26.71
2023-04-25T12:09:50.436Z,26.67
2023-04-25T12:10:50.432Z,26.66
2023-04-25T12:11:50.476Z,26.66
2023-04-25T12:12:50.441Z,26.61
2023-04-25T12:13:50.436Z,26.61
2023-04-25T12:14:50.488Z,26.60
2023-04-25T12:15:50.479Z,26.57
2023-04-25T12:16:50.447Z,26.60
2023-04-25T12:17:50.442Z,26.56
2023-04-25T12:18:50.591Z,26.56
2023-04-25T12:19:50.434Z,26.51
2023-04-25T12:20:50.431Z,26.51
2023-04-25T12:21:57.858Z,26.51
2023-04-25T12:22:51.439Z,26.50
2023-04-25T12:23:50.417Z,26.50
2023-04-25T12:24:50.461Z,26.47
2023-04-25T12:25:50.429Z,26.50
2023-04-25T12:26:50.432Z,26.46
2023-04-25T12:27:50.430Z,26.47
2023-04-25T12:28:50.640Z,26.47
2023-04-25T12:29:50.453Z,26.44
2023-04-25T12:30:50.446Z,26.47
2023-04-25T12:31:50.471Z,26.44
2023-04-25T12:32:50.448Z,26.44
2023-04-25T12:33:50.405Z,26.43
2023-04-25T12:34:50.443Z,26.43
2023-04-25T12:35:50.439Z,26.43
2023-04-25T12:36:50.407Z,26.44
2023-04-25T12:37:50.412Z,26.44
2023-04-25T12:38:50.613Z,26.46
2023-04-25T12:39:50.449Z,26.44
2023-04-25T12:40:50.421Z,26.46
2023-04-25T12:41:50.415Z,26.49
2023-04-25T12:42:50.440Z,26.49
2023-04-25T12:43:50.470Z,26.53
2023-04-25T12:44:50.529Z,26.50
2023-04-25T12:45:50.596Z,26.51
2023-04-25T12:46:50.618Z,26.51
2023-04-25T12:47:50.692Z,26.53
2023-04-25T12:48:50.750Z,26.54
2023-04-25T12:49:50.666Z,26.54
2023-04-25T12:50:50.746Z,26.54
2023-04-25T12:51:50.742Z,26.56
2023-04-25T12:52:50.788Z,26.58
2023-04-25T12:53:50.778Z,26.57
2023-04-25T12:54:50.848Z,26.58
2023-04-25T12:55:50.909Z,26.58
2023-04-25T12:56:50.895Z,26.61
2023-04-25T12:57:50.977Z,26.58